Search for airport 
image banner adimage banner adimage banner ad
image banner ad

CL62 - Station 125

Located in Calabasas, United States

ICAO - CL62, IATA -

Data provided by Airmate  

General information

Coordinates: N34°9'5" W118°41'52"
Elevation is 850 feet MSL.
Magnetic variation is 14° East
View others Airports in California

Operational data

Special qualification required
Current time UTC:
Current local time:
Weather at : KVNY - Van Nuys ( 20 km )
METAR: KVNY 150851Z 10004KT 10SM CLR 23/14 A2987 RMK AO2 SLP104 T02280139 56004
TAF: KVNY 150532Z 1506/1606 VRB03KT P6SM SKC FM151900 13005KT P6SM SKC FM152200 28008KT P6SM SKC FM160500 08008KT P6SM SKC
View NOTAMs / SUP AIP / TFR affecting this airport [VIEW]
Communications frequencies: [VIEW]

Runways:

Airport contact information

Address: Calabasas United States

Satellite view of CL62